sensor_id;sensor_type;location;lat;lon;timestamp;P1;durP1;ratioP1;P2;durP2;ratioP2
15192;SDS011;7697;51.630;7.484;2022-09-16T00:04:07;1.83;;;1.10;;
15192;SDS011;7697;51.630;7.484;2022-09-16T00:09:08;1.73;;;1.00;;
15192;SDS011;7697;51.630;7.484;2022-09-16T00:14:12;2.50;;;1.30;;
15192;SDS011;7697;51.630;7.484;2022-09-16T00:19:14;2.63;;;1.40;;
15192;SDS011;7697;51.630;7.484;2022-09-16T00:24:16;2.60;;;1.02;;
15192;SDS011;7697;51.630;7.484;2022-09-16T00:29:19;4.03;;;1.15;;
15192;SDS011;7697;51.630;7.484;2022-09-16T00:34:21;2.60;;;1.17;;
15192;SDS011;7697;51.630;7.484;2022-09-16T00:39:25;1.98;;;1.10;;
15192;SDS011;7697;51.630;7.484;2022-09-16T00:50:03;2.40;;;1.05;;
15192;SDS011;7697;51.630;7.484;2022-09-16T00:55:09;2.03;;;1.00;;
15192;SDS011;7697;51.630;7.484;2022-09-16T01:00:15;3.08;;;1.20;;
15192;SDS011;7697;51.630;7.484;2022-09-16T01:05:17;1.73;;;1.10;;
15192;SDS011;7697;51.630;7.484;2022-09-16T01:10:22;2.33;;;1.17;;
15192;SDS011;7697;51.630;7.484;2022-09-16T01:15:27;1.65;;;1.10;;
15192;SDS011;7697;51.630;7.484;2022-09-16T01:20:44;1.73;;;0.80;;
15192;SDS011;7697;51.630;7.484;2022-09-16T01:26:03;2.63;;;1.10;;
15192;SDS011;7697;51.630;7.484;2022-09-16T01:31:21;1.10;;;0.88;;
15192;SDS011;7697;51.630;7.484;2022-09-16T01:36:30;1.95;;;1.02;;
15192;SDS011;7697;51.630;7.484;2022-09-16T01:41:46;1.90;;;1.08;;
15192;SDS011;7697;51.630;7.484;2022-09-16T01:47:00;1.33;;;0.85;;
15192;SDS011;7697;51.630;7.484;2022-09-16T01:52:13;2.33;;;1.00;;
15192;SDS011;7697;51.630;7.484;2022-09-16T01:57:24;1.48;;;0.90;;
15192;SDS011;7697;51.630;7.484;2022-09-16T02:02:36;2.67;;;1.20;;
15192;SDS011;7697;51.630;7.484;2022-09-16T02:07:44;1.73;;;1.20;;
15192;SDS011;7697;51.630;7.484;2022-09-16T02:12:59;2.10;;;1.00;;
15192;SDS011;7697;51.630;7.484;2022-09-16T02:18:10;4.15;;;1.50;;
15192;SDS011;7697;51.630;7.484;2022-09-16T02:23:16;2.63;;;1.23;;
15192;SDS011;7697;51.630;7.484;2022-09-16T02:28:22;3.13;;;1.00;;
15192;SDS011;7697;51.630;7.484;2022-09-16T02:33:29;2.80;;;1.42;;
15192;SDS011;7697;51.630;7.484;2022-09-16T02:38:39;2.20;;;1.30;;
15192;SDS011;7697;51.630;7.484;2022-09-16T02:43:45;2.63;;;1.30;;
15192;SDS011;7697;51.630;7.484;2022-09-16T02:48:52;5.20;;;1.40;;
15192;SDS011;7697;51.630;7.484;2022-09-16T02:54:00;1.60;;;1.17;;
15192;SDS011;7697;51.630;7.484;2022-09-16T02:59:06;3.55;;;1.60;;
15192;SDS011;7697;51.630;7.484;2022-09-16T03:04:12;1.48;;;1.20;;
15192;SDS011;7697;51.630;7.484;2022-09-16T03:09:17;5.65;;;1.40;;
15192;SDS011;7697;51.630;7.484;2022-09-16T03:14:28;3.90;;;1.55;;
15192;SDS011;7697;51.630;7.484;2022-09-16T03:19:51;3.17;;;1.20;;
15192;SDS011;7697;51.630;7.484;2022-09-16T03:25:01;3.58;;;1.77;;
15192;SDS011;7697;51.630;7.484;2022-09-16T03:30:13;3.13;;;1.92;;
15192;SDS011;7697;51.630;7.484;2022-09-16T03:35:17;4.53;;;1.85;;
15192;SDS011;7697;51.630;7.484;2022-09-16T03:40:28;2.88;;;1.50;;
15192;SDS011;7697;51.630;7.484;2022-09-16T03:45:31;2.08;;;1.38;;
15192;SDS011;7697;51.630;7.484;2022-09-16T03:50:34;3.75;;;1.50;;
15192;SDS011;7697;51.630;7.484;2022-09-16T03:55:36;3.88;;;1.55;;
15192;SDS011;7697;51.630;7.484;2022-09-16T04:00:38;2.60;;;1.30;;
15192;SDS011;7697;51.630;7.484;2022-09-16T04:05:41;2.22;;;1.30;;
15192;SDS011;7697;51.630;7.484;2022-09-16T04:10:51;1.80;;;1.20;;
15192;SDS011;7697;51.630;7.484;2022-09-16T04:15:54;2.72;;;1.27;;
15192;SDS011;7697;51.630;7.484;2022-09-16T04:20:57;3.42;;;1.40;;
15192;SDS011;7697;51.630;7.484;2022-09-16T04:26:00;1.73;;;1.10;;
15192;SDS011;7697;51.630;7.484;2022-09-16T04:31:03;2.90;;;1.20;;
15192;SDS011;7697;51.630;7.484;2022-09-16T04:36:09;1.95;;;1.10;;
15192;SDS011;7697;51.630;7.484;2022-09-16T04:41:16;3.53;;;1.50;;
15192;SDS011;7697;51.630;7.484;2022-09-16T04:46:19;2.80;;;1.60;;
15192;SDS011;7697;51.630;7.484;2022-09-16T04:51:23;2.83;;;1.40;;
15192;SDS011;7697;51.630;7.484;2022-09-16T04:56:27;2.42;;;1.10;;
15192;SDS011;7697;51.630;7.484;2022-09-16T05:01:31;2.63;;;1.50;;
15192;SDS011;7697;51.630;7.484;2022-09-16T05:06:37;2.40;;;1.50;;
15192;SDS011;7697;51.630;7.484;2022-09-16T05:11:40;3.53;;;1.40;;
15192;SDS011;7697;51.630;7.484;2022-09-16T05:16:42;1.23;;;1.10;;
15192;SDS011;7697;51.630;7.484;2022-09-16T05:21:47;3.10;;;1.40;;
15192;SDS011;7697;51.630;7.484;2022-09-16T05:26:49;2.10;;;1.40;;
15192;SDS011;7697;51.630;7.484;2022-09-16T05:31:50;1.88;;;1.50;;
15192;SDS011;7697;51.630;7.484;2022-09-16T05:36:53;4.20;;;1.75;;
15192;SDS011;7697;51.630;7.484;2022-09-16T05:41:57;2.85;;;1.52;;
15192;SDS011;7697;51.630;7.484;2022-09-16T05:47:00;4.05;;;1.55;;
15192;SDS011;7697;51.630;7.484;2022-09-16T05:52:05;2.58;;;1.23;;
15192;SDS011;7697;51.630;7.484;2022-09-16T05:57:07;1.00;;;0.75;;
15192;SDS011;7697;51.630;7.484;2022-09-16T06:02:09;1.83;;;0.80;;
15192;SDS011;7697;51.630;7.484;2022-09-16T06:07:13;0.43;;;0.43;;
15192;SDS011;7697;51.630;7.484;2022-09-16T06:12:18;2.38;;;0.60;;
15192;SDS011;7697;51.630;7.484;2022-09-16T06:17:20;2.20;;;0.77;;
15192;SDS011;7697;51.630;7.484;2022-09-16T06:22:28;1.13;;;0.70;;
15192;SDS011;7697;51.630;7.484;2022-09-16T06:27:30;1.13;;;0.77;;
15192;SDS011;7697;51.630;7.484;2022-09-16T06:32:32;1.92;;;1.00;;
15192;SDS011;7697;51.630;7.484;2022-09-16T06:37:36;2.00;;;1.00;;
15192;SDS011;7697;51.630;7.484;2022-09-16T06:42:37;1.75;;;1.02;;
15192;SDS011;7697;51.630;7.484;2022-09-16T06:47:39;1.90;;;1.20;;
15192;SDS011;7697;51.630;7.484;2022-09-16T06:52:42;2.38;;;1.50;;
15192;SDS011;7697;51.630;7.484;2022-09-16T06:57:44;2.88;;;1.40;;
15192;SDS011;7697;51.630;7.484;2022-09-16T07:02:46;2.92;;;1.50;;
15192;SDS011;7697;51.630;7.484;2022-09-16T07:07:49;4.00;;;1.80;;
15192;SDS011;7697;51.630;7.484;2022-09-16T07:12:52;4.05;;;1.75;;
15192;SDS011;7697;51.630;7.484;2022-09-16T07:17:53;3.03;;;1.50;;
15192;SDS011;7697;51.630;7.484;2022-09-16T07:22:56;3.35;;;1.42;;
15192;SDS011;7697;51.630;7.484;2022-09-16T07:27:58;2.70;;;1.52;;
15192;SDS011;7697;51.630;7.484;2022-09-16T07:33:00;1.23;;;1.10;;
15192;SDS011;7697;51.630;7.484;2022-09-16T07:38:03;1.50;;;1.15;;
15192;SDS011;7697;51.630;7.484;2022-09-16T07:43:05;2.15;;;1.13;;
15192;SDS011;7697;51.630;7.484;2022-09-16T07:48:07;2.63;;;1.13;;
15192;SDS011;7697;51.630;7.484;2022-09-16T07:53:10;2.47;;;1.23;;
15192;SDS011;7697;51.630;7.484;2022-09-16T07:58:12;2.22;;;1.20;;
15192;SDS011;7697;51.630;7.484;2022-09-16T08:03:14;2.28;;;1.50;;
15192;SDS011;7697;51.630;7.484;2022-09-16T08:08:18;3.22;;;1.52;;
15192;SDS011;7697;51.630;7.484;2022-09-16T08:13:20;3.40;;;1.60;;
15192;SDS011;7697;51.630;7.484;2022-09-16T08:18:22;3.15;;;1.80;;
15192;SDS011;7697;51.630;7.484;2022-09-16T08:23:25;4.57;;;2.22;;
15192;SDS011;7697;51.630;7.484;2022-09-16T08:28:27;2.95;;;1.92;;
15192;SDS011;7697;51.630;7.484;2022-09-16T08:33:30;2.30;;;1.75;;
15192;SDS011;7697;51.630;7.484;2022-09-16T08:38:33;4.80;;;1.92;;
15192;SDS011;7697;51.630;7.484;2022-09-16T08:43:38;3.75;;;1.65;;
15192;SDS011;7697;51.630;7.484;2022-09-16T08:48:45;3.33;;;1.60;;
15192;SDS011;7697;51.630;7.484;2022-09-16T08:53:56;3.33;;;1.50;;
15192;SDS011;7697;51.630;7.484;2022-09-16T08:59:02;2.95;;;1.38;;
15192;SDS011;7697;51.630;7.484;2022-09-16T09:04:10;2.50;;;1.30;;
15192;SDS011;7697;51.630;7.484;2022-09-16T09:09:20;2.67;;;1.40;;
15192;SDS011;7697;51.630;7.484;2022-09-16T09:14:32;2.30;;;1.30;;
15192;SDS011;7697;51.630;7.484;2022-09-16T09:19:46;1.92;;;1.00;;
15192;SDS011;7697;51.630;7.484;2022-09-16T09:25:03;2.03;;;1.30;;
15192;SDS011;7697;51.630;7.484;2022-09-16T09:30:22;5.35;;;1.80;;
15192;SDS011;7697;51.630;7.484;2022-09-16T09:35:29;3.05;;;1.05;;
15192;SDS011;7697;51.630;7.484;2022-09-16T09:40:48;1.33;;;0.93;;
15192;SDS011;7697;51.630;7.484;2022-09-16T09:45:57;1.75;;;0.90;;
15192;SDS011;7697;51.630;7.484;2022-09-16T09:51:04;2.22;;;1.00;;
15192;SDS011;7697;51.630;7.484;2022-09-16T09:56:15;1.95;;;0.85;;
15192;SDS011;7697;51.630;7.484;2022-09-16T10:01:21;2.78;;;0.90;;
15192;SDS011;7697;51.630;7.484;2022-09-16T10:06:24;3.65;;;1.33;;
15192;SDS011;7697;51.630;7.484;2022-09-16T10:11:30;3.10;;;1.27;;
15192;SDS011;7697;51.630;7.484;2022-09-16T10:16:33;2.40;;;1.10;;
15192;SDS011;7697;51.630;7.484;2022-09-16T10:21:40;3.30;;;1.20;;
15192;SDS011;7697;51.630;7.484;2022-09-16T10:26:47;1.80;;;0.90;;
15192;SDS011;7697;51.630;7.484;2022-09-16T10:31:49;3.10;;;1.10;;
15192;SDS011;7697;51.630;7.484;2022-09-16T10:36:57;5.57;;;1.48;;
15192;SDS011;7697;51.630;7.484;2022-09-16T10:42:03;2.47;;;1.27;;
15192;SDS011;7697;51.630;7.484;2022-09-16T10:47:19;4.25;;;1.15;;
15192;SDS011;7697;51.630;7.484;2022-09-16T10:52:26;1.70;;;0.75;;
15192;SDS011;7697;51.630;7.484;2022-09-16T10:57:31;1.83;;;0.75;;
15192;SDS011;7697;51.630;7.484;2022-09-16T11:02:51;1.10;;;0.70;;
15192;SDS011;7697;51.630;7.484;2022-09-16T11:08:10;1.35;;;0.50;;
15192;SDS011;7697;51.630;7.484;2022-09-16T11:13:23;2.20;;;0.80;;
15192;SDS011;7697;51.630;7.484;2022-09-16T11:18:45;1.45;;;0.60;;
15192;SDS011;7697;51.630;7.484;2022-09-16T11:24:03;1.58;;;0.85;;
15192;SDS011;7697;51.630;7.484;2022-09-16T11:29:19;2.38;;;1.08;;
15192;SDS011;7697;51.630;7.484;2022-09-16T11:34:37;1.80;;;0.90;;
15192;SDS011;7697;51.630;7.484;2022-09-16T11:39:57;4.28;;;1.02;;
15192;SDS011;7697;51.630;7.484;2022-09-16T11:45:17;1.80;;;1.05;;
15192;SDS011;7697;51.630;7.484;2022-09-16T11:50:36;2.03;;;0.98;;
15192;SDS011;7697;51.630;7.484;2022-09-16T11:55:46;1.20;;;0.90;;
15192;SDS011;7697;51.630;7.484;2022-09-16T12:00:56;1.52;;;0.93;;
15192;SDS011;7697;51.630;7.484;2022-09-16T12:06:04;2.60;;;1.10;;
15192;SDS011;7697;51.630;7.484;2022-09-16T12:11:17;2.67;;;0.95;;
15192;SDS011;7697;51.630;7.484;2022-09-16T12:16:28;1.92;;;1.00;;
15192;SDS011;7697;51.630;7.484;2022-09-16T12:21:35;1.27;;;0.77;;
15192;SDS011;7697;51.630;7.484;2022-09-16T12:26:41;1.75;;;0.90;;
15192;SDS011;7697;51.630;7.484;2022-09-16T12:31:51;1.20;;;0.80;;
15192;SDS011;7697;51.630;7.484;2022-09-16T12:36:57;3.13;;;0.98;;
15192;SDS011;7697;51.630;7.484;2022-09-16T12:42:15;3.15;;;1.42;;
15192;SDS011;7697;51.630;7.484;2022-09-16T12:53:12;1.40;;;0.75;;
15192;SDS011;7697;51.630;7.484;2022-09-16T13:04:22;0.88;;;0.73;;
15192;SDS011;7697;51.630;7.484;2022-09-16T13:09:29;1.40;;;0.80;;
15192;SDS011;7697;51.630;7.484;2022-09-16T13:14:36;2.35;;;0.90;;
15192;SDS011;7697;51.630;7.484;2022-09-16T13:19:48;1.10;;;0.80;;
15192;SDS011;7697;51.630;7.484;2022-09-16T13:24:54;3.50;;;0.82;;
15192;SDS011;7697;51.630;7.484;2022-09-16T13:35:38;6.32;;;0.90;;
15192;SDS011;7697;51.630;7.484;2022-09-16T13:40:51;2.22;;;1.02;;
15192;SDS011;7697;51.630;7.484;2022-09-16T13:45:59;2.35;;;1.25;;
15192;SDS011;7697;51.630;7.484;2022-09-16T13:51:15;1.98;;;0.88;;
15192;SDS011;7697;51.630;7.484;2022-09-16T13:56:25;3.08;;;1.20;;
15192;SDS011;7697;51.630;7.484;2022-09-16T14:01:44;1.33;;;0.90;;
15192;SDS011;7697;51.630;7.484;2022-09-16T14:06:58;1.48;;;1.08;;
15192;SDS011;7697;51.630;7.484;2022-09-16T14:12:10;5.68;;;1.30;;
15192;SDS011;7697;51.630;7.484;2022-09-16T14:17:21;2.30;;;1.08;;
15192;SDS011;7697;51.630;7.484;2022-09-16T14:22:28;1.77;;;1.17;;
15192;SDS011;7697;51.630;7.484;2022-09-16T14:27:32;2.47;;;1.20;;
15192;SDS011;7697;51.630;7.484;2022-09-16T14:32:36;2.08;;;1.40;;
15192;SDS011;7697;51.630;7.484;2022-09-16T14:37:43;2.75;;;1.40;;
15192;SDS011;7697;51.630;7.484;2022-09-16T14:42:47;2.55;;;1.13;;
15192;SDS011;7697;51.630;7.484;2022-09-16T14:47:51;2.13;;;1.30;;
15192;SDS011;7697;51.630;7.484;2022-09-16T14:52:57;1.50;;;1.10;;
15192;SDS011;7697;51.630;7.484;2022-09-16T14:58:00;4.88;;;1.23;;
15192;SDS011;7697;51.630;7.484;2022-09-16T15:03:03;1.98;;;1.20;;
15192;SDS011;7697;51.630;7.484;2022-09-16T15:08:18;2.38;;;1.17;;
15192;SDS011;7697;51.630;7.484;2022-09-16T15:13:24;2.55;;;1.00;;
15192;SDS011;7697;51.630;7.484;2022-09-16T15:18:28;3.78;;;1.45;;
15192;SDS011;7697;51.630;7.484;2022-09-16T15:23:33;2.75;;;1.33;;
15192;SDS011;7697;51.630;7.484;2022-09-16T15:28:47;3.88;;;1.45;;
15192;SDS011;7697;51.630;7.484;2022-09-16T15:33:54;2.67;;;1.70;;
15192;SDS011;7697;51.630;7.484;2022-09-16T15:39:01;2.22;;;1.38;;
15192;SDS011;7697;51.630;7.484;2022-09-16T15:44:06;5.55;;;1.90;;
15192;SDS011;7697;51.630;7.484;2022-09-16T15:49:10;3.55;;;2.17;;
15192;SDS011;7697;51.630;7.484;2022-09-16T15:54:16;3.38;;;2.17;;
15192;SDS011;7697;51.630;7.484;2022-09-16T15:59:28;5.18;;;1.70;;
15192;SDS011;7697;51.630;7.484;2022-09-16T16:04:32;2.80;;;1.35;;
15192;SDS011;7697;51.630;7.484;2022-09-16T16:09:40;1.40;;;1.10;;
15192;SDS011;7697;51.630;7.484;2022-09-16T16:14:43;2.63;;;1.45;;
15192;SDS011;7697;51.630;7.484;2022-09-16T16:19:46;3.33;;;1.30;;
15192;SDS011;7697;51.630;7.484;2022-09-16T16:24:53;3.20;;;1.15;;
15192;SDS011;7697;51.630;7.484;2022-09-16T16:29:55;2.50;;;1.20;;
15192;SDS011;7697;51.630;7.484;2022-09-16T16:34:57;2.60;;;1.40;;
15192;SDS011;7697;51.630;7.484;2022-09-16T16:40:00;3.10;;;1.30;;
15192;SDS011;7697;51.630;7.484;2022-09-16T16:45:03;3.03;;;1.17;;
15192;SDS011;7697;51.630;7.484;2022-09-16T16:50:05;4.72;;;1.30;;
15192;SDS011;7697;51.630;7.484;2022-09-16T16:55:09;2.72;;;1.27;;
15192;SDS011;7697;51.630;7.484;2022-09-16T17:00:11;1.95;;;0.95;;
15192;SDS011;7697;51.630;7.484;2022-09-16T17:05:13;1.88;;;0.98;;
15192;SDS011;7697;51.630;7.484;2022-09-16T17:10:17;2.10;;;1.20;;
15192;SDS011;7697;51.630;7.484;2022-09-16T17:15:18;3.33;;;1.40;;
15192;SDS011;7697;51.630;7.484;2022-09-16T17:20:20;2.22;;;1.30;;
15192;SDS011;7697;51.630;7.484;2022-09-16T17:25:23;1.40;;;1.00;;
15192;SDS011;7697;51.630;7.484;2022-09-16T17:30:25;1.17;;;0.90;;
15192;SDS011;7697;51.630;7.484;2022-09-16T17:35:26;2.03;;;1.20;;
15192;SDS011;7697;51.630;7.484;2022-09-16T17:40:30;1.42;;;1.20;;
15192;SDS011;7697;51.630;7.484;2022-09-16T17:45:31;2.78;;;1.33;;
15192;SDS011;7697;51.630;7.484;2022-09-16T17:50:33;5.15;;;1.45;;
15192;SDS011;7697;51.630;7.484;2022-09-16T17:55:38;1.95;;;1.15;;
15192;SDS011;7697;51.630;7.484;2022-09-16T18:00:40;1.60;;;1.05;;
15192;SDS011;7697;51.630;7.484;2022-09-16T18:05:42;1.88;;;1.13;;
15192;SDS011;7697;51.630;7.484;2022-09-16T18:10:51;2.22;;;1.20;;
15192;SDS011;7697;51.630;7.484;2022-09-16T18:15:53;2.78;;;1.35;;
15192;SDS011;7697;51.630;7.484;2022-09-16T18:20:55;2.70;;;1.25;;
15192;SDS011;7697;51.630;7.484;2022-09-16T18:25:58;3.30;;;1.80;;
15192;SDS011;7697;51.630;7.484;2022-09-16T18:31:04;2.45;;;1.27;;
15192;SDS011;7697;51.630;7.484;2022-09-16T18:36:08;3.05;;;1.48;;
15192;SDS011;7697;51.630;7.484;2022-09-16T18:41:13;3.70;;;1.52;;
15192;SDS011;7697;51.630;7.484;2022-09-16T18:46:18;4.35;;;1.50;;
15192;SDS011;7697;51.630;7.484;2022-09-16T18:51:21;2.55;;;1.25;;
15192;SDS011;7697;51.630;7.484;2022-09-16T18:56:26;3.38;;;1.38;;
15192;SDS011;7697;51.630;7.484;2022-09-16T19:01:29;3.05;;;1.23;;
15192;SDS011;7697;51.630;7.484;2022-09-16T19:06:32;2.67;;;1.33;;
15192;SDS011;7697;51.630;7.484;2022-09-16T19:11:37;4.90;;;1.50;;
15192;SDS011;7697;51.630;7.484;2022-09-16T19:16:39;3.92;;;1.27;;
15192;SDS011;7697;51.630;7.484;2022-09-16T19:21:42;4.00;;;1.65;;
15192;SDS011;7697;51.630;7.484;2022-09-16T19:26:45;3.17;;;1.60;;
15192;SDS011;7697;51.630;7.484;2022-09-16T19:31:49;5.38;;;1.67;;
15192;SDS011;7697;51.630;7.484;2022-09-16T19:36:53;4.93;;;1.80;;
15192;SDS011;7697;51.630;7.484;2022-09-16T19:41:57;6.18;;;1.67;;
15192;SDS011;7697;51.630;7.484;2022-09-16T19:47:02;2.90;;;1.10;;
15192;SDS011;7697;51.630;7.484;2022-09-16T19:52:04;2.25;;;1.27;;
15192;SDS011;7697;51.630;7.484;2022-09-16T19:57:07;4.88;;;1.40;;
15192;SDS011;7697;51.630;7.484;2022-09-16T20:02:09;2.53;;;1.20;;
15192;SDS011;7697;51.630;7.484;2022-09-16T20:07:11;3.33;;;1.17;;
15192;SDS011;7697;51.630;7.484;2022-09-16T20:12:17;2.45;;;1.20;;
15192;SDS011;7697;51.630;7.484;2022-09-16T20:17:19;3.08;;;1.60;;
15192;SDS011;7697;51.630;7.484;2022-09-16T20:22:20;2.72;;;1.50;;
15192;SDS011;7697;51.630;7.484;2022-09-16T20:27:23;4.50;;;1.48;;
15192;SDS011;7697;51.630;7.484;2022-09-16T20:32:25;5.15;;;1.70;;
15192;SDS011;7697;51.630;7.484;2022-09-16T20:37:27;4.07;;;1.60;;
15192;SDS011;7697;51.630;7.484;2022-09-16T20:42:30;6.18;;;1.70;;
15192;SDS011;7697;51.630;7.484;2022-09-16T20:47:33;5.55;;;1.80;;
15192;SDS011;7697;51.630;7.484;2022-09-16T20:52:34;6.03;;;1.80;;
15192;SDS011;7697;51.630;7.484;2022-09-16T20:57:37;4.30;;;1.67;;
15192;SDS011;7697;51.630;7.484;2022-09-16T21:02:39;2.80;;;1.40;;
15192;SDS011;7697;51.630;7.484;2022-09-16T21:07:41;3.35;;;1.38;;
15192;SDS011;7697;51.630;7.484;2022-09-16T21:12:44;5.80;;;1.80;;
15192;SDS011;7697;51.630;7.484;2022-09-16T21:17:46;4.70;;;1.73;;
15192;SDS011;7697;51.630;7.484;2022-09-16T21:22:48;3.30;;;1.33;;
15192;SDS011;7697;51.630;7.484;2022-09-16T21:27:51;4.95;;;1.50;;
15192;SDS011;7697;51.630;7.484;2022-09-16T21:32:54;3.47;;;1.45;;
15192;SDS011;7697;51.630;7.484;2022-09-16T21:37:56;7.20;;;1.73;;
15192;SDS011;7697;51.630;7.484;2022-09-16T21:42:59;5.45;;;1.83;;
15192;SDS011;7697;51.630;7.484;2022-09-16T21:48:01;4.25;;;1.60;;
15192;SDS011;7697;51.630;7.484;2022-09-16T21:53:02;5.63;;;1.98;;
15192;SDS011;7697;51.630;7.484;2022-09-16T21:58:05;2.50;;;1.20;;
15192;SDS011;7697;51.630;7.484;2022-09-16T22:03:07;2.63;;;1.50;;
15192;SDS011;7697;51.630;7.484;2022-09-16T22:08:09;4.28;;;1.60;;
15192;SDS011;7697;51.630;7.484;2022-09-16T22:13:13;4.15;;;1.60;;
15192;SDS011;7697;51.630;7.484;2022-09-16T22:18:15;4.05;;;1.65;;
15192;SDS011;7697;51.630;7.484;2022-09-16T22:23:16;3.13;;;1.30;;
15192;SDS011;7697;51.630;7.484;2022-09-16T22:28:20;3.38;;;1.65;;
15192;SDS011;7697;51.630;7.484;2022-09-16T22:33:21;4.40;;;1.70;;
15192;SDS011;7697;51.630;7.484;2022-09-16T22:38:23;3.50;;;1.35;;
15192;SDS011;7697;51.630;7.484;2022-09-16T22:43:26;3.67;;;1.60;;
15192;SDS011;7697;51.630;7.484;2022-09-16T22:48:28;6.57;;;1.70;;
15192;SDS011;7697;51.630;7.484;2022-09-16T22:53:30;5.07;;;1.63;;
15192;SDS011;7697;51.630;7.484;2022-09-16T22:58:34;4.18;;;1.55;;
15192;SDS011;7697;51.630;7.484;2022-09-16T23:03:35;4.40;;;1.60;;
15192;SDS011;7697;51.630;7.484;2022-09-16T23:08:38;4.20;;;1.60;;
15192;SDS011;7697;51.630;7.484;2022-09-16T23:13:43;4.32;;;1.67;;
15192;SDS011;7697;51.630;7.484;2022-09-16T23:18:47;4.57;;;1.70;;
15192;SDS011;7697;51.630;7.484;2022-09-16T23:23:50;2.65;;;1.25;;
15192;SDS011;7697;51.630;7.484;2022-09-16T23:28:55;3.78;;;1.58;;
15192;SDS011;7697;51.630;7.484;2022-09-16T23:33:58;3.10;;;1.40;;
15192;SDS011;7697;51.630;7.484;2022-09-16T23:39:00;3.03;;;1.30;;
15192;SDS011;7697;51.630;7.484;2022-09-16T23:44:03;3.65;;;1.58;;
15192;SDS011;7697;51.630;7.484;2022-09-16T23:49:06;3.47;;;1.60;;
15192;SDS011;7697;51.630;7.484;2022-09-16T23:54:09;2.58;;;1.27;;
15192;SDS011;7697;51.630;7.484;2022-09-16T23:59:12;4.03;;;1.63;;
